sensor_id;sensor_type;location;lat;lon;timestamp;P1;durP1;ratioP1;P2;durP2;ratioP2
55076;SDS011;40971;44.702;11.030;2022-07-23T00:00:53;18.15;;;8.57;;
55076;SDS011;40971;44.702;11.030;2022-07-23T00:03:19;15.40;;;8.20;;
55076;SDS011;40971;44.702;11.030;2022-07-23T00:05:44;20.27;;;9.35;;
55076;SDS011;40971;44.702;11.030;2022-07-23T00:08:09;18.42;;;8.40;;
55076;SDS011;40971;44.702;11.030;2022-07-23T00:10:35;17.65;;;8.90;;
55076;SDS011;40971;44.702;11.030;2022-07-23T00:13:00;19.23;;;9.15;;
55076;SDS011;40971;44.702;11.030;2022-07-23T00:15:26;17.20;;;8.18;;
55076;SDS011;40971;44.702;11.030;2022-07-23T00:17:51;17.30;;;8.27;;
55076;SDS011;40971;44.702;11.030;2022-07-23T00:20:17;19.30;;;8.70;;
55076;SDS011;40971;44.702;11.030;2022-07-23T00:22:50;14.50;;;8.02;;
55076;SDS011;40971;44.702;11.030;2022-07-23T00:25:16;18.20;;;8.57;;
55076;SDS011;40971;44.702;11.030;2022-07-23T00:27:42;21.48;;;9.45;;
55076;SDS011;40971;44.702;11.030;2022-07-23T00:30:08;16.02;;;8.27;;
55076;SDS011;40971;44.702;11.030;2022-07-23T00:35:13;19.20;;;8.63;;
55076;SDS011;40971;44.702;11.030;2022-07-23T00:37:39;15.35;;;8.18;;
55076;SDS011;40971;44.702;11.030;2022-07-23T00:40:04;16.88;;;8.32;;
55076;SDS011;40971;44.702;11.030;2022-07-23T00:42:31;18.65;;;9.40;;
55076;SDS011;40971;44.702;11.030;2022-07-23T00:44:57;17.48;;;9.32;;
55076;SDS011;40971;44.702;11.030;2022-07-23T00:47:22;20.30;;;9.40;;
55076;SDS011;40971;44.702;11.030;2022-07-23T00:49:48;25.65;;;10.15;;
55076;SDS011;40971;44.702;11.030;2022-07-23T00:52:13;16.80;;;8.80;;
55076;SDS011;40971;44.702;11.030;2022-07-23T00:54:39;21.40;;;8.70;;
55076;SDS011;40971;44.702;11.030;2022-07-23T00:57:04;16.73;;;9.25;;
55076;SDS011;40971;44.702;11.030;2022-07-23T00:59:30;17.17;;;9.73;;
55076;SDS011;40971;44.702;11.030;2022-07-23T01:01:55;21.67;;;9.80;;
55076;SDS011;40971;44.702;11.030;2022-07-23T01:04:21;16.48;;;9.60;;
55076;SDS011;40971;44.702;11.030;2022-07-23T01:06:46;22.50;;;10.10;;
55076;SDS011;40971;44.702;11.030;2022-07-23T01:09:12;19.20;;;10.18;;
55076;SDS011;40971;44.702;11.030;2022-07-23T01:11:37;16.20;;;9.18;;
55076;SDS011;40971;44.702;11.030;2022-07-23T01:16:42;18.48;;;9.57;;
55076;SDS011;40971;44.702;11.030;2022-07-23T01:19:09;20.65;;;10.38;;
55076;SDS011;40971;44.702;11.030;2022-07-23T01:21:40;18.05;;;10.23;;
55076;SDS011;40971;44.702;11.030;2022-07-23T01:24:10;18.05;;;9.73;;
55076;SDS011;40971;44.702;11.030;2022-07-23T01:26:37;19.98;;;10.20;;
55076;SDS011;40971;44.702;11.030;2022-07-23T01:29:06;17.20;;;10.02;;
55076;SDS011;40971;44.702;11.030;2022-07-23T01:31:35;19.48;;;10.20;;
55076;SDS011;40971;44.702;11.030;2022-07-23T01:34:03;62.45;;;12.07;;
55076;SDS011;40971;44.702;11.030;2022-07-23T01:36:32;42.65;;;10.88;;
55076;SDS011;40971;44.702;11.030;2022-07-23T01:38:58;31.35;;;10.63;;
55076;SDS011;40971;44.702;11.030;2022-07-23T01:41:23;32.50;;;10.52;;
55076;SDS011;40971;44.702;11.030;2022-07-23T01:43:49;28.92;;;8.93;;
55076;SDS011;40971;44.702;11.030;2022-07-23T01:46:14;17.52;;;8.90;;
55076;SDS011;40971;44.702;11.030;2022-07-23T01:48:40;25.15;;;10.82;;
55076;SDS011;40971;44.702;11.030;2022-07-23T01:51:05;23.42;;;10.95;;
55076;SDS011;40971;44.702;11.030;2022-07-23T01:53:31;20.17;;;10.30;;
55076;SDS011;40971;44.702;11.030;2022-07-23T01:55:57;20.08;;;10.30;;
55076;SDS011;40971;44.702;11.030;2022-07-23T01:58:23;32.60;;;11.35;;
55076;SDS011;40971;44.702;11.030;2022-07-23T02:00:49;21.95;;;10.60;;
55076;SDS011;40971;44.702;11.030;2022-07-23T02:03:14;20.67;;;11.45;;
55076;SDS011;40971;44.702;11.030;2022-07-23T02:05:40;24.00;;;10.88;;
55076;SDS011;40971;44.702;11.030;2022-07-23T02:08:05;20.92;;;10.65;;
55076;SDS011;40971;44.702;11.030;2022-07-23T02:10:31;24.08;;;11.93;;
55076;SDS011;40971;44.702;11.030;2022-07-23T02:12:57;20.40;;;11.70;;
55076;SDS011;40971;44.702;11.030;2022-07-23T02:15:22;27.88;;;11.60;;
55076;SDS011;40971;44.702;11.030;2022-07-23T02:17:48;17.75;;;10.73;;
55076;SDS011;40971;44.702;11.030;2022-07-23T02:20:14;23.30;;;11.35;;
55076;SDS011;40971;44.702;11.030;2022-07-23T02:22:39;19.85;;;11.32;;
55076;SDS011;40971;44.702;11.030;2022-07-23T02:25:06;22.42;;;11.85;;
55076;SDS011;40971;44.702;11.030;2022-07-23T02:27:32;20.02;;;12.63;;
55076;SDS011;40971;44.702;11.030;2022-07-23T02:29:58;22.38;;;13.30;;
55076;SDS011;40971;44.702;11.030;2022-07-23T02:32:24;24.98;;;12.45;;
55076;SDS011;40971;44.702;11.030;2022-07-23T02:34:50;19.88;;;11.77;;
55076;SDS011;40971;44.702;11.030;2022-07-23T02:37:16;22.88;;;12.68;;
55076;SDS011;40971;44.702;11.030;2022-07-23T02:39:41;24.20;;;13.40;;
55076;SDS011;40971;44.702;11.030;2022-07-23T02:42:07;22.35;;;12.20;;
55076;SDS011;40971;44.702;11.030;2022-07-23T02:44:32;21.83;;;13.18;;
55076;SDS011;40971;44.702;11.030;2022-07-23T02:46:58;25.95;;;13.45;;
55076;SDS011;40971;44.702;11.030;2022-07-23T02:49:24;22.35;;;11.10;;
55076;SDS011;40971;44.702;11.030;2022-07-23T02:51:49;26.95;;;13.20;;
55076;SDS011;40971;44.702;11.030;2022-07-23T02:54:15;28.95;;;12.77;;
55076;SDS011;40971;44.702;11.030;2022-07-23T02:56:40;21.40;;;12.18;;
55076;SDS011;40971;44.702;11.030;2022-07-23T02:59:06;27.65;;;14.23;;
55076;SDS011;40971;44.702;11.030;2022-07-23T03:01:31;27.77;;;14.63;;
55076;SDS011;40971;44.702;11.030;2022-07-23T03:03:57;27.88;;;14.55;;
55076;SDS011;40971;44.702;11.030;2022-07-23T03:06:22;29.05;;;14.40;;
55076;SDS011;40971;44.702;11.030;2022-07-23T03:08:49;22.17;;;14.25;;
55076;SDS011;40971;44.702;11.030;2022-07-23T03:11:14;20.27;;;12.60;;
55076;SDS011;40971;44.702;11.030;2022-07-23T03:13:40;27.30;;;13.73;;
55076;SDS011;40971;44.702;11.030;2022-07-23T03:16:06;22.88;;;13.23;;
55076;SDS011;40971;44.702;11.030;2022-07-23T03:18:32;20.80;;;13.63;;
55076;SDS011;40971;44.702;11.030;2022-07-23T03:20:58;26.77;;;13.73;;
55076;SDS011;40971;44.702;11.030;2022-07-23T03:23:23;26.35;;;13.25;;
55076;SDS011;40971;44.702;11.030;2022-07-23T03:25:49;27.02;;;13.32;;
55076;SDS011;40971;44.702;11.030;2022-07-23T03:28:14;22.08;;;13.13;;
55076;SDS011;40971;44.702;11.030;2022-07-23T03:30:41;24.25;;;11.18;;
55076;SDS011;40971;44.702;11.030;2022-07-23T03:33:07;24.73;;;13.85;;
55076;SDS011;40971;44.702;11.030;2022-07-23T03:35:33;23.13;;;12.15;;
55076;SDS011;40971;44.702;11.030;2022-07-23T03:37:58;79.72;;;16.95;;
55076;SDS011;40971;44.702;11.030;2022-07-23T03:40:24;29.27;;;13.10;;
55076;SDS011;40971;44.702;11.030;2022-07-23T03:42:49;29.67;;;12.60;;
55076;SDS011;40971;44.702;11.030;2022-07-23T03:45:14;26.95;;;12.95;;
55076;SDS011;40971;44.702;11.030;2022-07-23T03:47:40;20.05;;;12.50;;
55076;SDS011;40971;44.702;11.030;2022-07-23T03:50:06;23.13;;;12.68;;
55076;SDS011;40971;44.702;11.030;2022-07-23T03:52:31;23.80;;;12.98;;
55076;SDS011;40971;44.702;11.030;2022-07-23T03:54:57;22.27;;;12.60;;
55076;SDS011;40971;44.702;11.030;2022-07-23T03:57:22;37.22;;;15.98;;
55076;SDS011;40971;44.702;11.030;2022-07-23T03:59:48;30.25;;;13.73;;
55076;SDS011;40971;44.702;11.030;2022-07-23T04:02:13;32.55;;;12.18;;
55076;SDS011;40971;44.702;11.030;2022-07-23T04:04:39;24.23;;;12.40;;
55076;SDS011;40971;44.702;11.030;2022-07-23T04:07:04;31.95;;;12.55;;
55076;SDS011;40971;44.702;11.030;2022-07-23T04:09:29;19.63;;;12.30;;
55076;SDS011;40971;44.702;11.030;2022-07-23T04:11:55;54.65;;;13.15;;
55076;SDS011;40971;44.702;11.030;2022-07-23T04:14:20;25.02;;;13.48;;
55076;SDS011;40971;44.702;11.030;2022-07-23T04:16:46;28.98;;;15.57;;
55076;SDS011;40971;44.702;11.030;2022-07-23T04:19:11;32.67;;;12.88;;
55076;SDS011;40971;44.702;11.030;2022-07-23T04:21:37;27.05;;;15.30;;
55076;SDS011;40971;44.702;11.030;2022-07-23T04:24:02;31.05;;;15.48;;
55076;SDS011;40971;44.702;11.030;2022-07-23T04:26:28;29.13;;;13.63;;
55076;SDS011;40971;44.702;11.030;2022-07-23T04:28:53;33.95;;;13.88;;
55076;SDS011;40971;44.702;11.030;2022-07-23T04:31:19;25.85;;;13.32;;
55076;SDS011;40971;44.702;11.030;2022-07-23T04:33:44;21.25;;;11.77;;
55076;SDS011;40971;44.702;11.030;2022-07-23T04:36:10;41.63;;;14.43;;
55076;SDS011;40971;44.702;11.030;2022-07-23T04:38:35;28.98;;;13.38;;
55076;SDS011;40971;44.702;11.030;2022-07-23T04:41:01;23.23;;;13.95;;
55076;SDS011;40971;44.702;11.030;2022-07-23T04:43:26;25.58;;;13.45;;
55076;SDS011;40971;44.702;11.030;2022-07-23T04:45:52;28.80;;;13.20;;
55076;SDS011;40971;44.702;11.030;2022-07-23T04:48:17;25.58;;;13.38;;
55076;SDS011;40971;44.702;11.030;2022-07-23T04:50:43;25.17;;;13.25;;
55076;SDS011;40971;44.702;11.030;2022-07-23T04:53:08;24.70;;;12.98;;
55076;SDS011;40971;44.702;11.030;2022-07-23T04:55:34;20.48;;;13.02;;
55076;SDS011;40971;44.702;11.030;2022-07-23T04:57:59;23.85;;;14.60;;
55076;SDS011;40971;44.702;11.030;2022-07-23T05:00:27;41.63;;;15.50;;
55076;SDS011;40971;44.702;11.030;2022-07-23T05:02:53;24.35;;;14.02;;
55076;SDS011;40971;44.702;11.030;2022-07-23T05:05:19;39.53;;;13.85;;
55076;SDS011;40971;44.702;11.030;2022-07-23T05:07:44;32.08;;;15.65;;
55076;SDS011;40971;44.702;11.030;2022-07-23T05:10:10;29.23;;;16.38;;
55076;SDS011;40971;44.702;11.030;2022-07-23T05:12:35;22.73;;;14.65;;
55076;SDS011;40971;44.702;11.030;2022-07-23T05:15:00;31.38;;;15.73;;
55076;SDS011;40971;44.702;11.030;2022-07-23T05:17:26;33.90;;;14.90;;
55076;SDS011;40971;44.702;11.030;2022-07-23T05:19:51;24.83;;;12.50;;
55076;SDS011;40971;44.702;11.030;2022-07-23T05:22:17;34.50;;;12.45;;
55076;SDS011;40971;44.702;11.030;2022-07-23T05:24:42;20.10;;;11.23;;
55076;SDS011;40971;44.702;11.030;2022-07-23T05:27:08;18.80;;;10.43;;
55076;SDS011;40971;44.702;11.030;2022-07-23T05:29:33;23.02;;;9.40;;
55076;SDS011;40971;44.702;11.030;2022-07-23T05:31:59;16.08;;;8.48;;
55076;SDS011;40971;44.702;11.030;2022-07-23T05:34:24;22.95;;;8.35;;
55076;SDS011;40971;44.702;11.030;2022-07-23T05:36:50;17.70;;;7.85;;
55076;SDS011;40971;44.702;11.030;2022-07-23T05:39:15;21.58;;;7.90;;
55076;SDS011;40971;44.702;11.030;2022-07-23T05:41:41;19.80;;;7.20;;
55076;SDS011;40971;44.702;11.030;2022-07-23T05:44:06;16.75;;;7.90;;
55076;SDS011;40971;44.702;11.030;2022-07-23T05:46:32;14.88;;;7.95;;
55076;SDS011;40971;44.702;11.030;2022-07-23T05:48:57;19.15;;;7.45;;
55076;SDS011;40971;44.702;11.030;2022-07-23T05:51:23;17.67;;;8.15;;
55076;SDS011;40971;44.702;11.030;2022-07-23T05:53:50;18.98;;;8.50;;
55076;SDS011;40971;44.702;11.030;2022-07-23T05:56:17;19.73;;;8.13;;
55076;SDS011;40971;44.702;11.030;2022-07-23T05:58:43;13.93;;;7.57;;
55076;SDS011;40971;44.702;11.030;2022-07-23T06:01:09;21.80;;;8.43;;
55076;SDS011;40971;44.702;11.030;2022-07-23T06:03:34;20.90;;;7.57;;
55076;SDS011;40971;44.702;11.030;2022-07-23T06:06:00;22.98;;;7.32;;
55076;SDS011;40971;44.702;11.030;2022-07-23T06:08:25;14.02;;;6.35;;
55076;SDS011;40971;44.702;11.030;2022-07-23T06:10:51;13.30;;;6.88;;
55076;SDS011;40971;44.702;11.030;2022-07-23T06:13:17;16.08;;;7.00;;
55076;SDS011;40971;44.702;11.030;2022-07-23T06:15:43;12.55;;;6.20;;
55076;SDS011;40971;44.702;11.030;2022-07-23T06:18:08;14.05;;;5.95;;
55076;SDS011;40971;44.702;11.030;2022-07-23T06:20:34;15.15;;;6.38;;
55076;SDS011;40971;44.702;11.030;2022-07-23T06:22:59;13.85;;;5.97;;
55076;SDS011;40971;44.702;11.030;2022-07-23T06:25:25;15.25;;;5.57;;
55076;SDS011;40971;44.702;11.030;2022-07-23T06:27:50;16.70;;;5.43;;
55076;SDS011;40971;44.702;11.030;2022-07-23T06:30:16;13.27;;;5.68;;
55076;SDS011;40971;44.702;11.030;2022-07-23T06:32:42;12.82;;;6.00;;
55076;SDS011;40971;44.702;11.030;2022-07-23T06:35:07;12.85;;;5.57;;
55076;SDS011;40971;44.702;11.030;2022-07-23T06:37:33;18.70;;;5.78;;
55076;SDS011;40971;44.702;11.030;2022-07-23T06:39:58;12.82;;;5.57;;
55076;SDS011;40971;44.702;11.030;2022-07-23T06:42:24;14.88;;;6.28;;
55076;SDS011;40971;44.702;11.030;2022-07-23T06:44:49;17.83;;;6.10;;
55076;SDS011;40971;44.702;11.030;2022-07-23T06:47:15;11.73;;;5.53;;
55076;SDS011;40971;44.702;11.030;2022-07-23T06:49:40;13.13;;;5.25;;
55076;SDS011;40971;44.702;11.030;2022-07-23T06:52:06;21.45;;;5.85;;
55076;SDS011;40971;44.702;11.030;2022-07-23T06:54:32;11.57;;;5.40;;
55076;SDS011;40971;44.702;11.030;2022-07-23T06:56:57;16.92;;;5.32;;
55076;SDS011;40971;44.702;11.030;2022-07-23T06:59:23;13.23;;;5.38;;
55076;SDS011;40971;44.702;11.030;2022-07-23T07:01:48;11.20;;;4.80;;
55076;SDS011;40971;44.702;11.030;2022-07-23T07:04:14;12.38;;;4.93;;
55076;SDS011;40971;44.702;11.030;2022-07-23T07:06:39;12.80;;;4.90;;
55076;SDS011;40971;44.702;11.030;2022-07-23T07:09:04;11.20;;;5.35;;
55076;SDS011;40971;44.702;11.030;2022-07-23T07:11:30;11.52;;;5.22;;
55076;SDS011;40971;44.702;11.030;2022-07-23T07:13:55;15.82;;;5.50;;
55076;SDS011;40971;44.702;11.030;2022-07-23T07:16:21;11.55;;;5.03;;
55076;SDS011;40971;44.702;11.030;2022-07-23T07:18:46;11.50;;;4.85;;
55076;SDS011;40971;44.702;11.030;2022-07-23T07:21:12;13.38;;;4.90;;
55076;SDS011;40971;44.702;11.030;2022-07-23T07:23:37;18.02;;;5.47;;
55076;SDS011;40971;44.702;11.030;2022-07-23T07:26:02;11.02;;;4.25;;
55076;SDS011;40971;44.702;11.030;2022-07-23T07:28:28;30.35;;;5.80;;
55076;SDS011;40971;44.702;11.030;2022-07-23T07:30:53;10.70;;;4.43;;
55076;SDS011;40971;44.702;11.030;2022-07-23T07:33:19;16.90;;;3.90;;
55076;SDS011;40971;44.702;11.030;2022-07-23T07:35:46;9.48;;;4.13;;
55076;SDS011;40971;44.702;11.030;2022-07-23T07:38:11;8.23;;;3.47;;
55076;SDS011;40971;44.702;11.030;2022-07-23T07:40:37;8.88;;;3.70;;
55076;SDS011;40971;44.702;11.030;2022-07-23T07:43:02;9.80;;;4.57;;
55076;SDS011;40971;44.702;11.030;2022-07-23T07:45:28;15.85;;;5.15;;
55076;SDS011;40971;44.702;11.030;2022-07-23T07:47:54;8.70;;;4.25;;
55076;SDS011;40971;44.702;11.030;2022-07-23T07:50:20;8.20;;;3.50;;
55076;SDS011;40971;44.702;11.030;2022-07-23T07:52:46;8.35;;;3.58;;
55076;SDS011;40971;44.702;11.030;2022-07-23T07:55:12;9.93;;;3.80;;
55076;SDS011;40971;44.702;11.030;2022-07-23T07:57:38;13.88;;;3.50;;
55076;SDS011;40971;44.702;11.030;2022-07-23T08:00:05;8.02;;;3.92;;
55076;SDS011;40971;44.702;11.030;2022-07-23T08:02:45;9.25;;;3.63;;
55076;SDS011;40971;44.702;11.030;2022-07-23T08:05:12;17.42;;;4.47;;
55076;SDS011;40971;44.702;11.030;2022-07-23T08:07:39;11.13;;;4.00;;
55076;SDS011;40971;44.702;11.030;2022-07-23T08:10:06;13.50;;;3.90;;
55076;SDS011;40971;44.702;11.030;2022-07-23T08:12:40;12.95;;;4.30;;
55076;SDS011;40971;44.702;11.030;2022-07-23T08:15:06;14.65;;;3.55;;
55076;SDS011;40971;44.702;11.030;2022-07-23T08:17:32;9.32;;;3.72;;
55076;SDS011;40971;44.702;11.030;2022-07-23T08:19:58;11.00;;;3.75;;
55076;SDS011;40971;44.702;11.030;2022-07-23T08:22:23;8.50;;;3.55;;
55076;SDS011;40971;44.702;11.030;2022-07-23T08:24:48;14.18;;;4.05;;
55076;SDS011;40971;44.702;11.030;2022-07-23T08:27:14;9.27;;;3.75;;
55076;SDS011;40971;44.702;11.030;2022-07-23T08:29:39;8.85;;;4.38;;
55076;SDS011;40971;44.702;11.030;2022-07-23T08:32:05;10.32;;;4.20;;
55076;SDS011;40971;44.702;11.030;2022-07-23T08:34:30;17.27;;;4.68;;
55076;SDS011;40971;44.702;11.030;2022-07-23T08:36:56;17.58;;;4.18;;
55076;SDS011;40971;44.702;11.030;2022-07-23T08:39:21;9.38;;;3.70;;
55076;SDS011;40971;44.702;11.030;2022-07-23T08:41:47;11.98;;;4.38;;
55076;SDS011;40971;44.702;11.030;2022-07-23T08:44:13;9.85;;;3.90;;
55076;SDS011;40971;44.702;11.030;2022-07-23T08:46:41;8.70;;;3.78;;
55076;SDS011;40971;44.702;11.030;2022-07-23T08:49:08;10.10;;;3.65;;
55076;SDS011;40971;44.702;11.030;2022-07-23T08:51:34;11.40;;;3.75;;
55076;SDS011;40971;44.702;11.030;2022-07-23T08:53:59;14.15;;;3.70;;
55076;SDS011;40971;44.702;11.030;2022-07-23T08:56:25;11.05;;;3.85;;
55076;SDS011;40971;44.702;11.030;2022-07-23T08:58:53;15.02;;;4.32;;
55076;SDS011;40971;44.702;11.030;2022-07-23T09:01:18;12.60;;;4.20;;
55076;SDS011;40971;44.702;11.030;2022-07-23T09:03:44;11.50;;;3.90;;
55076;SDS011;40971;44.702;11.030;2022-07-23T09:06:10;7.82;;;3.92;;
55076;SDS011;40971;44.702;11.030;2022-07-23T09:11:09;17.50;;;4.68;;
55076;SDS011;40971;44.702;11.030;2022-07-23T09:13:40;8.07;;;4.03;;
55076;SDS011;40971;44.702;11.030;2022-07-23T09:18:50;11.43;;;4.13;;
55076;SDS011;40971;44.702;11.030;2022-07-23T09:21:28;12.00;;;4.38;;
55076;SDS011;40971;44.702;11.030;2022-07-23T09:26:29;9.13;;;4.10;;
55076;SDS011;40971;44.702;11.030;2022-07-23T09:28:58;8.77;;;4.18;;
55076;SDS011;40971;44.702;11.030;2022-07-23T09:39:39;16.90;;;3.90;;
55076;SDS011;40971;44.702;11.030;2022-07-23T09:44:46;11.52;;;4.10;;
55076;SDS011;40971;44.702;11.030;2022-07-23T09:47:13;9.85;;;4.05;;
55076;SDS011;40971;44.702;11.030;2022-07-23T09:49:39;8.98;;;3.45;;
55076;SDS011;40971;44.702;11.030;2022-07-23T09:52:05;12.43;;;3.78;;
55076;SDS011;40971;44.702;11.030;2022-07-23T09:54:35;11.32;;;4.05;;
55076;SDS011;40971;44.702;11.030;2022-07-23T09:59:41;10.43;;;4.03;;
55076;SDS011;40971;44.702;11.030;2022-07-23T10:02:09;11.95;;;4.38;;
55076;SDS011;40971;44.702;11.030;2022-07-23T10:04:37;9.60;;;3.97;;
55076;SDS011;40971;44.702;11.030;2022-07-23T10:07:06;8.70;;;4.30;;
55076;SDS011;40971;44.702;11.030;2022-07-23T10:09:34;10.05;;;4.28;;
55076;SDS011;40971;44.702;11.030;2022-07-23T10:12:05;11.38;;;4.20;;
55076;SDS011;40971;44.702;11.030;2022-07-23T10:14:35;10.43;;;3.72;;
55076;SDS011;40971;44.702;11.030;2022-07-23T10:17:03;12.48;;;4.32;;
55076;SDS011;40971;44.702;11.030;2022-07-23T10:19:29;10.73;;;4.18;;
55076;SDS011;40971;44.702;11.030;2022-07-23T10:21:57;8.48;;;3.90;;
55076;SDS011;40971;44.702;11.030;2022-07-23T10:30:18;11.45;;;3.88;;
55076;SDS011;40971;44.702;11.030;2022-07-23T10:36:27;12.35;;;4.13;;
55076;SDS011;40971;44.702;11.030;2022-07-23T10:39:19;10.40;;;4.72;;
55076;SDS011;40971;44.702;11.030;2022-07-23T10:41:47;6.95;;;4.03;;
55076;SDS011;40971;44.702;11.030;2022-07-23T10:47:13;13.07;;;4.55;;
55076;SDS011;40971;44.702;11.030;2022-07-23T10:49:50;11.52;;;4.15;;
55076;SDS011;40971;44.702;11.030;2022-07-23T10:52:27;18.92;;;4.35;;
55076;SDS011;40971;44.702;11.030;2022-07-23T10:54:54;10.68;;;3.72;;
55076;SDS011;40971;44.702;11.030;2022-07-23T10:57:26;7.15;;;3.60;;
55076;SDS011;40971;44.702;11.030;2022-07-23T11:02:37;10.38;;;3.90;;
55076;SDS011;40971;44.702;11.030;2022-07-23T11:05:05;11.13;;;3.95;;
55076;SDS011;40971;44.702;11.030;2022-07-23T11:07:33;12.00;;;3.97;;
55076;SDS011;40971;44.702;11.030;2022-07-23T11:09:59;10.00;;;3.90;;
55076;SDS011;40971;44.702;11.030;2022-07-23T11:15:10;9.10;;;3.90;;
55076;SDS011;40971;44.702;11.030;2022-07-23T11:17:38;12.02;;;4.07;;
55076;SDS011;40971;44.702;11.030;2022-07-23T11:25:07;10.07;;;4.23;;
55076;SDS011;40971;44.702;11.030;2022-07-23T11:27:39;9.60;;;4.03;;
55076;SDS011;40971;44.702;11.030;2022-07-23T11:30:06;16.08;;;4.53;;
55076;SDS011;40971;44.702;11.030;2022-07-23T11:32:34;9.82;;;3.67;;
55076;SDS011;40971;44.702;11.030;2022-07-23T11:35:20;10.73;;;4.25;;
55076;SDS011;40971;44.702;11.030;2022-07-23T11:37:50;7.88;;;3.85;;
55076;SDS011;40971;44.702;11.030;2022-07-23T11:40:19;8.02;;;3.75;;
55076;SDS011;40971;44.702;11.030;2022-07-23T11:42:52;11.43;;;4.68;;
55076;SDS011;40971;44.702;11.030;2022-07-23T11:45:33;9.02;;;4.20;;
55076;SDS011;40971;44.702;11.030;2022-07-23T11:48:04;8.40;;;3.95;;
55076;SDS011;40971;44.702;11.030;2022-07-23T11:50:30;8.95;;;3.78;;
55076;SDS011;40971;44.702;11.030;2022-07-23T11:52:56;12.32;;;3.80;;
55076;SDS011;40971;44.702;11.030;2022-07-23T11:55:22;13.40;;;4.35;;
55076;SDS011;40971;44.702;11.030;2022-07-23T11:57:48;10.43;;;3.60;;
55076;SDS011;40971;44.702;11.030;2022-07-23T12:00:17;9.48;;;3.78;;
55076;SDS011;40971;44.702;11.030;2022-07-23T12:02:46;7.55;;;3.65;;
55076;SDS011;40971;44.702;11.030;2022-07-23T12:05:14;16.40;;;4.40;;
55076;SDS011;40971;44.702;11.030;2022-07-23T12:07:45;9.23;;;3.67;;
55076;SDS011;40971;44.702;11.030;2022-07-23T12:13:14;9.00;;;4.15;;
55076;SDS011;40971;44.702;11.030;2022-07-23T12:15:52;8.13;;;3.58;;
55076;SDS011;40971;44.702;11.030;2022-07-23T12:18:21;18.33;;;4.38;;
55076;SDS011;40971;44.702;11.030;2022-07-23T12:20:50;11.45;;;3.72;;
55076;SDS011;40971;44.702;11.030;2022-07-23T12:23:20;11.32;;;3.60;;
55076;SDS011;40971;44.702;11.030;2022-07-23T12:25:48;7.20;;;3.45;;
55076;SDS011;40971;44.702;11.030;2022-07-23T12:28:15;12.82;;;3.65;;
55076;SDS011;40971;44.702;11.030;2022-07-23T12:30:46;8.63;;;3.40;;
55076;SDS011;40971;44.702;11.030;2022-07-23T12:33:14;17.33;;;4.10;;
55076;SDS011;40971;44.702;11.030;2022-07-23T12:35:49;7.35;;;3.65;;
55076;SDS011;40971;44.702;11.030;2022-07-23T12:38:18;12.52;;;3.83;;
55076;SDS011;40971;44.702;11.030;2022-07-23T12:40:45;11.82;;;3.92;;
55076;SDS011;40971;44.702;11.030;2022-07-23T12:45:55;12.68;;;3.80;;
55076;SDS011;40971;44.702;11.030;2022-07-23T12:48:34;8.65;;;3.47;;
55076;SDS011;40971;44.702;11.030;2022-07-23T12:53:46;10.32;;;3.72;;
55076;SDS011;40971;44.702;11.030;2022-07-23T12:56:14;9.43;;;3.72;;
55076;SDS011;40971;44.702;11.030;2022-07-23T13:03:54;9.50;;;3.45;;
55076;SDS011;40971;44.702;11.030;2022-07-23T13:06:23;12.88;;;3.83;;
55076;SDS011;40971;44.702;11.030;2022-07-23T13:08:49;8.13;;;3.53;;
55076;SDS011;40971;44.702;11.030;2022-07-23T13:11:14;8.35;;;3.55;;
55076;SDS011;40971;44.702;11.030;2022-07-23T13:13:40;9.00;;;3.60;;
55076;SDS011;40971;44.702;11.030;2022-07-23T13:16:06;12.68;;;3.20;;
55076;SDS011;40971;44.702;11.030;2022-07-23T13:18:32;12.13;;;3.17;;
55076;SDS011;40971;44.702;11.030;2022-07-23T13:20:57;9.57;;;3.78;;
55076;SDS011;40971;44.702;11.030;2022-07-23T13:23:23;10.43;;;3.97;;
55076;SDS011;40971;44.702;11.030;2022-07-23T13:25:49;11.10;;;3.60;;
55076;SDS011;40971;44.702;11.030;2022-07-23T13:28:16;9.85;;;3.78;;
55076;SDS011;40971;44.702;11.030;2022-07-23T13:30:42;8.05;;;3.45;;
55076;SDS011;40971;44.702;11.030;2022-07-23T13:33:09;10.13;;;4.28;;
55076;SDS011;40971;44.702;11.030;2022-07-23T13:35:35;10.20;;;3.83;;
55076;SDS011;40971;44.702;11.030;2022-07-23T13:38:02;8.15;;;3.60;;
55076;SDS011;40971;44.702;11.030;2022-07-23T13:40:28;10.55;;;3.95;;
55076;SDS011;40971;44.702;11.030;2022-07-23T13:42:54;9.93;;;4.05;;
55076;SDS011;40971;44.702;11.030;2022-07-23T13:45:20;10.40;;;3.83;;
55076;SDS011;40971;44.702;11.030;2022-07-23T13:47:45;9.05;;;3.95;;
55076;SDS011;40971;44.702;11.030;2022-07-23T13:50:11;16.15;;;3.58;;
55076;SDS011;40971;44.702;11.030;2022-07-23T13:52:36;8.82;;;3.88;;
55076;SDS011;40971;44.702;11.030;2022-07-23T13:55:03;9.02;;;3.10;;
55076;SDS011;40971;44.702;11.030;2022-07-23T13:57:30;12.55;;;3.85;;
55076;SDS011;40971;44.702;11.030;2022-07-23T13:59:57;11.40;;;3.55;;
55076;SDS011;40971;44.702;11.030;2022-07-23T14:02:23;8.30;;;3.92;;
55076;SDS011;40971;44.702;11.030;2022-07-23T14:04:48;10.90;;;3.65;;
55076;SDS011;40971;44.702;11.030;2022-07-23T14:07:14;16.25;;;4.32;;
55076;SDS011;40971;44.702;11.030;2022-07-23T14:09:40;13.50;;;3.78;;
55076;SDS011;40971;44.702;11.030;2022-07-23T14:12:06;13.75;;;3.63;;
55076;SDS011;40971;44.702;11.030;2022-07-23T14:14:32;10.43;;;3.35;;
55076;SDS011;40971;44.702;11.030;2022-07-23T14:16:58;10.75;;;3.67;;
55076;SDS011;40971;44.702;11.030;2022-07-23T14:19:23;12.65;;;3.70;;
55076;SDS011;40971;44.702;11.030;2022-07-23T14:21:48;10.32;;;3.70;;
55076;SDS011;40971;44.702;11.030;2022-07-23T14:24:14;9.82;;;3.88;;
55076;SDS011;40971;44.702;11.030;2022-07-23T14:26:41;10.02;;;4.28;;
55076;SDS011;40971;44.702;11.030;2022-07-23T14:29:06;11.35;;;4.00;;
55076;SDS011;40971;44.702;11.030;2022-07-23T14:31:32;15.73;;;3.90;;
55076;SDS011;40971;44.702;11.030;2022-07-23T14:33:57;8.32;;;3.90;;
55076;SDS011;40971;44.702;11.030;2022-07-23T14:36:23;9.70;;;3.88;;
55076;SDS011;40971;44.702;11.030;2022-07-23T14:38:49;12.30;;;3.78;;
55076;SDS011;40971;44.702;11.030;2022-07-23T14:41:15;18.42;;;4.20;;
55076;SDS011;40971;44.702;11.030;2022-07-23T14:43:40;9.32;;;3.60;;
55076;SDS011;40971;44.702;11.030;2022-07-23T14:46:06;10.02;;;4.30;;
55076;SDS011;40971;44.702;11.030;2022-07-23T14:48:32;16.30;;;4.43;;
55076;SDS011;40971;44.702;11.030;2022-07-23T14:50:57;11.57;;;3.80;;
55076;SDS011;40971;44.702;11.030;2022-07-23T14:53:23;12.05;;;3.88;;
55076;SDS011;40971;44.702;11.030;2022-07-23T14:55:48;8.45;;;3.78;;
55076;SDS011;40971;44.702;11.030;2022-07-23T14:58:14;6.97;;;3.70;;
55076;SDS011;40971;44.702;11.030;2022-07-23T15:00:39;10.55;;;3.92;;
55076;SDS011;40971;44.702;11.030;2022-07-23T15:03:04;10.65;;;3.90;;
55076;SDS011;40971;44.702;11.030;2022-07-23T15:05:30;8.40;;;4.10;;
55076;SDS011;40971;44.702;11.030;2022-07-23T15:07:55;10.18;;;3.78;;
55076;SDS011;40971;44.702;11.030;2022-07-23T15:10:21;11.65;;;3.53;;
55076;SDS011;40971;44.702;11.030;2022-07-23T15:12:47;10.05;;;4.00;;
55076;SDS011;40971;44.702;11.030;2022-07-23T15:15:12;8.98;;;4.22;;
55076;SDS011;40971;44.702;11.030;2022-07-23T15:17:38;8.90;;;3.83;;
55076;SDS011;40971;44.702;11.030;2022-07-23T15:20:04;8.60;;;3.80;;